createdAt,value
2019-04-25T00:01:16.107Z,14.73
2019-04-25T00:03:46.666Z,14.70
2019-04-25T00:06:17.767Z,14.64
2019-04-25T00:08:48.110Z,14.61
2019-04-25T00:11:18.874Z,14.58
2019-04-25T00:13:49.321Z,14.54
2019-04-25T00:16:21.620Z,14.50
2019-04-25T00:18:51.994Z,14.49
2019-04-25T00:21:28.944Z,14.47
2019-04-25T00:24:05.095Z,14.42
2019-04-25T00:26:48.558Z,14.37
2019-04-25T00:29:19.049Z,14.34
2019-04-25T00:31:49.496Z,14.33
2019-04-25T00:34:19.845Z,14.34
2019-04-25T00:36:51.517Z,14.34
2019-04-25T00:39:25.104Z,14.34
2019-04-25T00:41:55.731Z,14.32
2019-04-25T00:44:26.039Z,14.30
2019-04-25T00:46:56.869Z,14.24
2019-04-25T00:49:27.412Z,14.16
2019-04-25T00:51:57.789Z,14.09
2019-04-25T00:54:28.102Z,14.05
2019-04-25T00:56:58.432Z,13.98
2019-04-25T00:59:46.929Z,13.92
2019-04-25T01:02:31.287Z,13.85
2019-04-25T01:05:02.001Z,13.78
2019-04-25T01:07:34.469Z,13.70
2019-04-25T01:10:05.720Z,13.66
2019-04-25T01:12:36.299Z,13.63
2019-04-25T01:15:08.518Z,13.56
2019-04-25T01:17:38.901Z,13.55
2019-04-25T01:20:10.124Z,13.55
2019-04-25T01:22:40.674Z,13.56
2019-04-25T01:25:13.728Z,13.59
2019-04-25T01:27:44.543Z,13.61
2019-04-25T01:30:16.456Z,13.60
2019-04-25T01:32:46.821Z,13.63
2019-04-25T01:35:26.550Z,13.66
2019-04-25T01:38:10.980Z,13.68
2019-04-25T01:41:18.443Z,13.68
2019-04-25T01:43:59.711Z,13.69
2019-04-25T01:46:30.539Z,13.71
2019-04-25T01:49:00.934Z,13.71
2019-04-25T01:51:31.269Z,13.74
2019-04-25T01:54:01.645Z,13.75
2019-04-25T01:56:33.258Z,13.73
2019-04-25T01:59:03.993Z,13.72
2019-04-25T02:01:36.141Z,13.73
2019-04-25T02:04:07.635Z,13.70
2019-04-25T02:06:38.235Z,13.65
2019-04-25T02:09:11.689Z,13.59
2019-04-25T02:11:52.996Z,13.50
2019-04-25T02:14:24.665Z,13.44
2019-04-25T02:16:56.303Z,13.36
2019-04-25T02:19:27.179Z,13.31
2019-04-25T02:21:57.853Z,13.25
2019-04-25T02:24:28.800Z,13.17
2019-04-25T02:26:59.387Z,13.07
2019-04-25T02:29:29.861Z,13.01
2019-04-25T02:32:02.905Z,12.93
2019-04-25T02:34:34.615Z,12.84
2019-04-25T02:37:09.482Z,12.77
2019-04-25T02:39:38.735Z,12.72
2019-04-25T02:42:09.167Z,12.66
2019-04-25T02:44:44.525Z,12.58
2019-04-25T02:47:34.684Z,12.53
2019-04-25T02:50:24.714Z,12.48
2019-04-25T02:53:07.459Z,12.42
2019-04-25T02:55:38.049Z,12.35
2019-04-25T02:58:10.208Z,12.30
2019-04-25T03:00:52.609Z,12.26
2019-04-25T03:03:14.907Z,12.23
2019-04-25T03:05:47.727Z,12.19
2019-04-25T03:08:17.692Z,12.14
2019-04-25T03:10:48.516Z,12.09
2019-04-25T03:13:18.880Z,12.04
2019-04-25T03:15:52.594Z,12.01
2019-04-25T03:18:24.823Z,11.97
2019-04-25T03:21:17.648Z,11.92
2019-04-25T03:23:49.350Z,11.87
2019-04-25T03:26:19.860Z,11.81
2019-04-25T03:28:50.145Z,11.79
2019-04-25T03:31:23.077Z,11.74
2019-04-25T03:33:55.581Z,11.70
2019-04-25T03:36:24.914Z,11.66
2019-04-25T03:38:55.311Z,11.64
2019-04-25T03:41:25.672Z,11.59
2019-04-25T03:43:55.989Z,11.57
2019-04-25T03:46:26.347Z,11.51
2019-04-25T03:49:01.222Z,11.47
2019-04-25T03:51:36.271Z,11.44
2019-04-25T03:54:08.522Z,11.40
2019-04-25T03:56:49.867Z,11.39
2019-04-25T03:59:14.199Z,11.34
2019-04-25T04:01:44.010Z,11.43
2019-04-25T04:04:16.322Z,11.35
2019-04-25T04:06:47.085Z,11.30
2019-04-25T04:09:17.352Z,11.27
2019-04-25T04:11:47.606Z,11.25
2019-04-25T04:14:17.738Z,11.24
2019-04-25T04:17:06.732Z,11.22
2019-04-25T04:19:45.926Z,11.20
2019-04-25T04:22:24.122Z,11.17
2019-04-25T04:24:56.511Z,11.14
2019-04-25T04:27:26.842Z,11.13
2019-04-25T04:29:57.110Z,11.14
2019-04-25T04:32:27.195Z,11.13
2019-04-25T04:34:57.504Z,11.14
2019-04-25T04:37:27.712Z,11.01
2019-04-25T04:39:57.973Z,11.13
2019-04-25T04:42:28.399Z,11.13
2019-04-25T04:44:58.657Z,11.15
2019-04-25T04:47:28.804Z,11.17
2019-04-25T04:49:59.016Z,11.21
2019-04-25T04:52:29.131Z,11.23
2019-04-25T04:55:07.750Z,11.25
2019-04-25T04:57:35.562Z,11.29
2019-04-25T05:00:03.867Z,11.31
2019-04-25T05:03:08.177Z,11.36
2019-04-25T05:05:45.638Z,11.37
2019-04-25T05:08:21.979Z,11.40
2019-04-25T05:10:52.284Z,11.44
2019-04-25T05:13:24.158Z,11.48
2019-04-25T05:15:54.588Z,11.53
2019-04-25T05:18:34.539Z,11.59
2019-04-25T05:20:56.875Z,11.63
2019-04-25T05:23:27.408Z,11.68
2019-04-25T05:25:57.796Z,11.75
2019-04-25T05:28:28.024Z,11.79
2019-04-25T05:31:11.468Z,11.86
2019-04-25T05:33:43.539Z,11.93
2019-04-25T05:36:15.071Z,11.99
2019-04-25T05:38:45.862Z,12.06
2019-04-25T05:41:25.205Z,12.13
2019-04-25T05:43:56.020Z,12.19
2019-04-25T05:46:26.348Z,12.26
2019-04-25T05:48:56.584Z,12.31
2019-04-25T05:51:26.846Z,12.39
2019-04-25T05:53:57.172Z,12.47
2019-04-25T05:56:28.283Z,12.54
2019-04-25T05:58:58.558Z,12.64
2019-04-25T06:01:30.117Z,12.71
2019-04-25T06:04:00.459Z,12.80
2019-04-25T06:06:30.899Z,12.86
2019-04-25T06:09:11.425Z,12.96
2019-04-25T06:11:53.366Z,13.02
2019-04-25T06:14:25.141Z,13.13
2019-04-25T06:16:59.118Z,13.24
2019-04-25T06:19:43.559Z,13.35
2019-04-25T06:22:19.924Z,13.41
2019-04-25T06:24:56.601Z,13.54
2019-04-25T06:27:35.156Z,13.64
2019-04-25T06:30:22.476Z,13.73
2019-04-25T06:32:53.365Z,13.79
2019-04-25T06:35:25.169Z,13.95
2019-04-25T06:37:56.308Z,14.00
2019-04-25T06:40:29.421Z,14.09
2019-04-25T06:42:59.468Z,14.22
2019-04-25T06:45:46.375Z,14.40
2019-04-25T06:48:47.964Z,14.56
2019-04-25T06:51:18.663Z,14.78
2019-04-25T06:53:49.233Z,14.98
2019-04-25T06:56:19.704Z,15.02
2019-04-25T06:58:50.228Z,15.02
2019-04-25T07:01:22.137Z,15.11
2019-04-25T07:03:56.064Z,15.12
2019-04-25T07:06:27.212Z,15.15
2019-04-25T07:08:57.829Z,15.34
2019-04-25T07:11:28.454Z,15.48
2019-04-25T07:13:59.056Z,15.56
2019-04-25T07:16:29.584Z,15.67
2019-04-25T07:19:00.213Z,15.89
2019-04-25T07:21:30.835Z,16.00
2019-04-25T07:24:05.707Z,16.08
2019-04-25T07:26:53.805Z,16.31
2019-04-25T07:29:49.036Z,16.51
2019-04-25T07:32:38.894Z,16.64
2019-04-25T07:35:09.361Z,16.62
2019-04-25T07:37:41.761Z,16.61
2019-04-25T07:40:13.975Z,16.62
2019-04-25T07:42:44.909Z,16.59
2019-04-25T07:45:16.651Z,16.61
2019-04-25T07:47:47.255Z,16.76
2019-04-25T07:50:18.114Z,16.98
2019-04-25T07:52:48.667Z,17.10
2019-04-25T07:55:19.117Z,17.29
2019-04-25T07:57:49.581Z,17.54
2019-04-25T08:00:20.588Z,17.77
2019-04-25T08:02:51.141Z,17.89
2019-04-25T08:05:21.702Z,17.94
2019-04-25T08:07:53.608Z,18.02
2019-04-25T08:10:27.989Z,17.99
2019-04-25T08:12:58.627Z,17.92
2019-04-25T08:15:37.071Z,17.88
2019-04-25T08:18:09.012Z,17.85
2019-04-25T08:20:43.408Z,17.72
2019-04-25T08:23:13.977Z,17.55
2019-04-25T08:25:44.738Z,17.51
2019-04-25T08:28:15.430Z,17.73
2019-04-25T08:30:46.014Z,17.95
2019-04-25T08:33:16.521Z,18.02
2019-04-25T08:36:03.535Z,18.19
2019-04-25T08:38:19.825Z,18.36
2019-04-25T08:40:50.403Z,18.63
2019-04-25T08:43:20.724Z,19.00
2019-04-25T08:45:51.304Z,19.20
2019-04-25T08:48:24.675Z,19.30
2019-04-25T08:51:11.486Z,19.44
2019-04-25T08:53:49.613Z,19.47
2019-04-25T08:56:25.342Z,19.53
2019-04-25T08:59:17.762Z,19.47
2019-04-25T09:02:04.407Z,19.38
2019-04-25T09:04:59.570Z,19.30
2019-04-25T09:10:06.226Z,19.54
2019-04-25T09:12:44.255Z,19.61
2019-04-25T09:15:19.940Z,19.66
2019-04-25T09:17:54.779Z,19.61
2019-04-25T09:20:29.617Z,19.58
2019-04-25T09:23:03.344Z,19.55
2019-04-25T09:25:38.635Z,19.57
2019-04-25T09:28:14.267Z,19.60
2019-04-25T09:30:51.655Z,19.71
2019-04-25T09:33:28.698Z,19.98
2019-04-25T09:36:06.920Z,20.16
2019-04-25T09:38:38.950Z,20.31
2019-04-25T09:41:09.244Z,20.58
2019-04-25T09:46:21.901Z,21.39
2019-04-25T09:49:17.519Z,21.18
2019-04-25T09:51:58.527Z,20.85
2019-04-25T09:54:38.032Z,20.64
2019-04-25T09:57:27.565Z,20.58
2019-04-25T09:59:57.958Z,20.56
2019-04-25T10:02:28.523Z,20.50
2019-04-25T10:04:59.117Z,20.50
2019-04-25T10:07:29.722Z,20.56
2019-04-25T10:10:00.371Z,20.60
2019-04-25T10:12:31.085Z,20.71
2019-04-25T10:15:16.452Z,20.71
2019-04-25T10:17:47.127Z,20.74
2019-04-25T10:20:19.559Z,20.91
2019-04-25T10:22:50.120Z,21.24
2019-04-25T10:25:20.916Z,21.47
2019-04-25T10:27:52.311Z,21.49
2019-04-25T10:30:25.923Z,21.49
2019-04-25T10:32:56.010Z,21.57
2019-04-25T10:35:26.522Z,21.70
2019-04-25T10:37:56.970Z,21.82
2019-04-25T10:40:28.539Z,21.82
2019-04-25T10:42:59.513Z,21.82
2019-04-25T10:45:30.156Z,21.84
2019-04-25T10:48:00.893Z,21.83
2019-04-25T10:50:31.501Z,21.80
2019-04-25T10:53:04.015Z,21.91
2019-04-25T10:55:34.885Z,22.05
2019-04-25T10:58:05.501Z,22.10
2019-04-25T11:00:40.530Z,22.20
2019-04-25T11:03:28.544Z,22.56
2019-04-25T11:05:59.237Z,22.71
2019-04-25T11:08:29.947Z,22.75
2019-04-25T11:11:01.054Z,22.90
2019-04-25T11:13:31.612Z,23.14
2019-04-25T11:16:03.500Z,23.44
2019-04-25T11:18:34.115Z,23.51
2019-04-25T11:21:06.102Z,23.42
2019-04-25T11:23:36.771Z,23.41
2019-04-25T11:26:07.641Z,23.35
2019-04-25T11:28:39.850Z,23.18
2019-04-25T11:31:14.410Z,23.18
2019-04-25T11:33:45.060Z,23.45
2019-04-25T11:36:15.854Z,23.92
2019-04-25T11:39:04.201Z,24.23
2019-04-25T11:41:34.927Z,24.44
2019-04-25T11:44:05.968Z,24.61
2019-04-25T11:46:39.245Z,25.18
2019-04-25T11:49:09.021Z,25.13
2019-04-25T11:51:39.660Z,25.29
2019-04-25T11:54:10.288Z,25.48
2019-04-25T11:56:42.639Z,25.49
2019-04-25T11:59:15.750Z,25.61
2019-04-25T12:01:47.636Z,25.90
2019-04-25T12:04:18.492Z,26.33
2019-04-25T12:09:17.764Z,27.09
2019-04-25T12:11:48.595Z,27.35
2019-04-25T12:14:19.503Z,27.72
2019-04-25T12:16:51.525Z,27.93
2019-04-25T12:19:33.134Z,28.30
2019-04-25T12:21:56.748Z,28.57
2019-04-25T12:24:26.930Z,28.80
2019-04-25T12:26:57.761Z,28.98
2019-04-25T12:29:28.435Z,29.31
2019-04-25T12:31:59.041Z,29.40
2019-04-25T12:34:29.597Z,29.43
2019-04-25T12:37:00.221Z,29.63
2019-04-25T12:39:30.968Z,29.90
2019-04-25T12:42:01.783Z,30.24
2019-04-25T12:44:54.930Z,30.43
2019-04-25T12:47:27.350Z,30.68
2019-04-25T12:49:59.342Z,31.06
2019-04-25T12:52:30.040Z,31.17
2019-04-25T12:55:00.566Z,30.43
2019-04-25T12:57:31.196Z,30.60
2019-04-25T13:00:04.037Z,31.28
2019-04-25T13:02:36.575Z,31.86
2019-04-25T13:05:08.543Z,32.31
2019-04-25T13:07:39.099Z,32.56
2019-04-25T13:12:36.783Z,32.92
2019-04-25T13:15:08.706Z,33.06
2019-04-25T13:17:40.225Z,33.02
2019-04-25T13:20:12.386Z,33.21
2019-04-25T13:22:43.325Z,33.74
2019-04-25T13:25:15.682Z,33.65
2019-04-25T13:27:58.474Z,32.64
2019-04-25T13:33:34.547Z,32.65
2019-04-25T13:36:08.478Z,32.45
2019-04-25T13:38:39.139Z,32.88
2019-04-25T13:41:09.677Z,32.71
2019-04-25T13:43:40.422Z,32.68
2019-04-25T13:46:13.862Z,33.36
2019-04-25T13:48:43.297Z,33.14
2019-04-25T13:51:14.207Z,32.48
2019-04-25T13:53:44.976Z,33.00
2019-04-25T13:56:15.615Z,33.59
2019-04-25T13:58:46.320Z,31.99
2019-04-25T14:01:17.645Z,30.91
2019-04-25T14:03:48.335Z,30.72
2019-04-25T14:06:18.834Z,31.38
2019-04-25T14:08:49.269Z,32.67
2019-04-25T14:11:20.568Z,33.64
2019-04-25T14:16:40.918Z,35.39
2019-04-25T14:19:42.291Z,35.88
2019-04-25T14:22:13.120Z,36.09
2019-04-25T14:24:46.216Z,35.80
2019-04-25T14:27:19.524Z,35.48
2019-04-25T14:29:53.573Z,35.41
2019-04-25T14:32:31.107Z,35.58
2019-04-25T14:35:03.954Z,35.93
2019-04-25T14:37:39.525Z,36.87
2019-04-25T14:40:10.345Z,36.97
2019-04-25T14:42:43.417Z,36.90
2019-04-25T14:45:16.666Z,37.36
2019-04-25T14:47:49.669Z,37.37
2019-04-25T14:50:22.151Z,37.58
2019-04-25T14:52:54.782Z,37.65
2019-04-25T14:55:41.984Z,37.67
2019-04-25T14:58:17.158Z,37.98
2019-04-25T15:00:49.446Z,38.49
2019-04-25T15:03:24.035Z,38.75
2019-04-25T15:05:54.466Z,38.92
2019-04-25T15:08:24.952Z,38.64
2019-04-25T15:10:55.479Z,38.89
2019-04-25T15:13:25.840Z,39.39
2019-04-25T15:15:56.263Z,39.72
2019-04-25T15:18:26.758Z,40.10
2019-04-25T15:20:57.033Z,39.81
2019-04-25T15:23:27.381Z,38.71
2019-04-25T15:25:57.650Z,38.36
2019-04-25T15:28:27.831Z,37.63
2019-04-25T15:30:58.181Z,37.17
2019-04-25T15:33:28.444Z,35.90
2019-04-25T15:36:16.563Z,34.93
2019-04-25T15:38:54.909Z,34.08
2019-04-25T15:41:34.890Z,34.53
2019-04-25T15:44:27.047Z,35.23
2019-04-25T15:46:58.715Z,35.49
2019-04-25T15:49:28.991Z,34.25
2019-04-25T15:51:59.366Z,32.85
2019-04-25T15:54:29.669Z,31.61
2019-04-25T15:56:59.808Z,30.95
2019-04-25T15:59:30.762Z,30.66
2019-04-25T16:02:08.016Z,31.42
2019-04-25T16:04:34.525Z,32.19
2019-04-25T16:07:07.223Z,31.89
2019-04-25T16:09:37.798Z,31.19
2019-04-25T16:12:09.305Z,30.61
2019-04-25T16:14:41.857Z,29.92
2019-04-25T16:17:14.518Z,29.06
2019-04-25T16:19:51.329Z,28.26
2019-04-25T16:22:21.896Z,27.61
2019-04-25T16:24:52.647Z,27.04
2019-04-25T16:27:23.276Z,26.58
2019-04-25T16:29:53.791Z,26.19
2019-04-25T16:32:25.164Z,25.84
2019-04-25T16:34:59.195Z,25.47
2019-04-25T16:37:30.347Z,25.14
2019-04-25T16:40:00.951Z,25.02
2019-04-25T16:42:31.684Z,24.75
2019-04-25T16:45:02.369Z,24.50
2019-04-25T16:47:33.117Z,24.21
2019-04-25T16:50:04.071Z,24.05
2019-04-25T16:52:34.510Z,23.98
2019-04-25T16:55:05.223Z,23.91
2019-04-25T16:57:35.613Z,23.76
2019-04-25T17:00:10.847Z,23.61
2019-04-25T17:02:42.271Z,23.50
2019-04-25T17:05:13.167Z,23.36
2019-04-25T17:07:43.415Z,23.18
2019-04-25T17:10:13.928Z,22.99
2019-04-25T17:12:44.212Z,22.79
2019-04-25T17:15:26.728Z,22.54
2019-04-25T17:18:09.736Z,22.33
2019-04-25T17:20:44.274Z,22.14
2019-04-25T17:23:14.830Z,21.94
2019-04-25T17:25:45.242Z,21.70
2019-04-25T17:28:17.444Z,21.47
2019-04-25T17:30:49.383Z,21.31
2019-04-25T17:33:34.246Z,21.15
2019-04-25T17:36:10.394Z,21.02
2019-04-25T17:38:44.086Z,20.80
2019-04-25T17:41:17.179Z,20.62
2019-04-25T17:43:47.399Z,20.45
2019-04-25T17:46:19.739Z,20.32
2019-04-25T17:48:49.983Z,20.22
2019-04-25T17:51:20.447Z,20.14
2019-04-25T17:53:50.748Z,20.07
2019-04-25T17:56:21.073Z,20.02
2019-04-25T17:58:51.269Z,19.93
2019-04-25T18:01:24.229Z,19.89
2019-04-25T18:03:54.497Z,19.83
2019-04-25T18:06:24.770Z,19.90
2019-04-25T18:08:55.032Z,19.82
2019-04-25T18:11:25.301Z,19.72
2019-04-25T18:13:55.709Z,19.61
2019-04-25T18:16:38.132Z,19.51
2019-04-25T18:19:30.430Z,19.40
2019-04-25T18:22:07.430Z,19.28
2019-04-25T18:24:55.823Z,19.19
2019-04-25T18:27:30.558Z,19.11
2019-04-25T18:30:06.075Z,19.07
2019-04-25T18:32:39.709Z,18.97
2019-04-25T18:35:21.798Z,18.91
2019-04-25T18:38:15.708Z,18.87
2019-04-25T18:41:09.483Z,18.99
2019-04-25T18:43:46.930Z,18.94
2019-04-25T18:46:24.982Z,18.90
2019-04-25T18:48:57.598Z,18.87
2019-04-25T18:54:26.214Z,18.85
2019-04-25T18:57:26.677Z,18.75
2019-04-25T19:00:16.639Z,18.75
2019-04-25T19:03:35.283Z,18.78
2019-04-25T19:06:12.024Z,18.78
2019-04-25T19:08:54.208Z,18.79
2019-04-25T19:11:25.570Z,18.76
2019-04-25T19:13:56.310Z,18.72
2019-04-25T19:16:27.985Z,18.69
2019-04-25T19:18:58.614Z,18.68
2019-04-25T19:23:58.742Z,18.70
2019-04-25T19:26:30.295Z,18.64
2019-04-25T19:29:00.817Z,18.57
2019-04-25T19:31:31.566Z,18.54
2019-04-25T19:34:02.153Z,18.45
2019-04-25T19:36:33.055Z,18.42
2019-04-25T19:39:05.352Z,18.34
2019-04-25T19:42:00.529Z,18.32
2019-04-25T19:44:31.248Z,18.32
2019-04-25T19:47:01.695Z,18.31
2019-04-25T19:49:32.360Z,18.33
2019-04-25T19:52:05.819Z,18.33
2019-04-25T19:54:36.447Z,18.34
2019-04-25T19:57:08.470Z,18.32
2019-04-25T19:59:44.763Z,18.32
2019-04-25T20:02:44.618Z,18.29
2019-04-25T20:05:35.411Z,18.22
2019-04-25T20:08:28.129Z,18.12
2019-04-25T20:11:22.288Z,18.05
2019-04-25T20:16:47.672Z,17.98
2019-04-25T20:19:19.603Z,17.97
2019-04-25T20:21:52.045Z,17.97
2019-04-25T20:24:23.210Z,17.96
2019-04-25T20:26:54.628Z,17.95
2019-04-25T20:29:28.554Z,17.93
2019-04-25T20:31:58.836Z,17.92
2019-04-25T20:34:29.434Z,17.93
2019-04-25T20:36:59.965Z,17.89
2019-04-25T20:39:31.379Z,17.82
2019-04-25T20:42:01.926Z,17.79
2019-04-25T20:44:32.477Z,17.74
2019-04-25T20:47:03.040Z,17.69
2019-04-25T20:49:33.608Z,17.64
2019-04-25T20:52:04.163Z,17.68
2019-04-25T20:54:34.759Z,17.57
2019-04-25T20:57:05.427Z,17.42
2019-04-25T20:59:36.059Z,17.27
2019-04-25T21:02:34.764Z,17.00
2019-04-25T21:05:05.630Z,16.73
2019-04-25T21:07:36.300Z,16.36
2019-04-25T21:10:09.558Z,16.03
2019-04-25T21:12:40.143Z,15.71
2019-04-25T21:15:19.701Z,15.49
2019-04-25T21:18:15.287Z,15.36
2019-04-25T21:20:45.870Z,15.29
2019-04-25T21:23:16.489Z,15.14
2019-04-25T21:25:47.778Z,15.09
2019-04-25T21:28:18.117Z,14.97
2019-04-25T21:30:52.458Z,14.87
2019-04-25T21:33:23.274Z,14.82
2019-04-25T21:35:54.081Z,14.79
2019-04-25T21:38:27.276Z,14.75
2019-04-25T21:41:19.429Z,14.73
2019-04-25T21:43:54.187Z,14.72
2019-04-25T21:46:24.902Z,14.77
2019-04-25T21:48:55.564Z,14.84
2019-04-25T21:51:32.422Z,14.91
2019-04-25T21:54:04.087Z,14.91
2019-04-25T21:56:34.747Z,14.89
2019-04-25T22:01:38.901Z,14.95
2019-04-25T22:04:10.691Z,14.94
2019-04-25T22:06:41.514Z,14.98
2019-04-25T22:09:17.545Z,15.02
2019-04-25T22:11:48.728Z,15.05
2019-04-25T22:14:19.663Z,15.11
2019-04-25T22:16:50.677Z,15.16
2019-04-25T22:19:22.074Z,15.23
2019-04-25T22:21:53.072Z,15.26
2019-04-25T22:24:23.680Z,15.25
2019-04-25T22:26:56.445Z,15.29
2019-04-25T22:29:28.367Z,15.28
2019-04-25T22:32:17.718Z,15.27
2019-04-25T22:35:07.846Z,15.27
2019-04-25T22:37:38.353Z,15.22
2019-04-25T22:40:09.202Z,15.18
2019-04-25T22:42:39.643Z,15.11
2019-04-25T22:45:09.990Z,15.05
2019-04-25T22:47:40.275Z,14.97
2019-04-25T22:50:10.865Z,14.91
2019-04-25T22:52:41.480Z,14.87
2019-04-25T22:55:12.434Z,14.84
2019-04-25T22:57:42.876Z,14.82
2019-04-25T23:00:27.122Z,14.79
2019-04-25T23:03:05.532Z,14.75
2019-04-25T23:05:40.616Z,14.73
2019-04-25T23:08:11.434Z,14.74
2019-04-25T23:10:41.812Z,14.74
2019-04-25T23:13:13.317Z,14.77
2019-04-25T23:15:43.583Z,14.75
2019-04-25T23:18:14.022Z,14.77
2019-04-25T23:20:44.492Z,14.78
2019-04-25T23:23:15.250Z,14.77
2019-04-25T23:26:23.868Z,14.76
2019-04-25T23:28:54.231Z,14.78
2019-04-25T23:31:28.263Z,14.78
2019-04-25T23:33:58.661Z,14.79
2019-04-25T23:36:29.073Z,14.82
2019-04-25T23:38:59.397Z,14.84
2019-04-25T23:41:30.212Z,14.87
2019-04-25T23:44:00.643Z,14.89
2019-04-25T23:46:31.392Z,14.90
2019-04-25T23:49:01.724Z,14.91
2019-04-25T23:51:32.433Z,14.94
2019-04-25T23:54:03.390Z,14.98
2019-04-25T23:56:33.890Z,15.00
2019-04-25T23:59:04.945Z,15.03
